Time;durP1;ratioP1;P1;durP2;ratioP2;P2;SDS_P1;SDS_P2;PMS_P1;PMS_P2;Temp;Humidity;BMP_temperature;BMP_pressure;BME280_temperature;BME280_humidity;BME280_pressure;Samples;Min_cycle;Max_cycle;Signal;HPM_P1;HPM_P2
2023/10/25 00:02:09;;;;;;;3.58;3.28;;;;;;;;;;5041286;28;20139;-65
2023/10/25 00:04:35;;;;;;;3.25;2.95;;;;;;;;;;5042575;28;20233;-65
2023/10/25 00:07:01;;;;;;;3.10;2.85;;;;;;;;;;5042367;28;20091;-65
2023/10/25 00:09:27;;;;;;;4.40;3.03;;;;;;;;;;5042591;28;20319;-65
2023/10/25 00:11:54;;;;;;;4.15;3.80;;;;;;;;;;5039281;28;20150;-65
2023/10/25 00:14:20;;;;;;;4.50;3.20;;;;;;;;;;5040313;28;20110;-65
2023/10/25 00:16:46;;;;;;;3.40;3.10;;;;;;;;;;5040761;28;20045;-65
2023/10/25 00:19:12;;;;;;;5.50;3.85;;;;;;;;;;5042068;28;20163;-65
2023/10/25 00:21:38;;;;;;;4.43;3.63;;;;;;;;;;5042703;28;20045;-65
2023/10/25 00:24:04;;;;;;;3.47;3.17;;;;;;;;;;5041963;28;20615;-64
2023/10/25 00:26:30;;;;;;;3.85;3.17;;;;;;;;;;5041205;28;20131;-65
2023/10/25 00:28:58;;;;;;;4.38;3.40;;;;;;;;;;5042729;28;20727;-65
2023/10/25 00:31:24;;;;;;;7.13;4.20;;;;;;;;;;5042068;28;20056;-65
2023/10/25 00:33:50;;;;;;;3.17;2.88;;;;;;;;;;5040600;28;20067;-65
2023/10/25 00:36:16;;;;;;;4.53;2.80;;;;;;;;;;5042298;28;20056;-65
2023/10/25 00:38:42;;;;;;;3.92;2.88;;;;;;;;;;5043159;28;20045;-65
2023/10/25 00:41:08;;;;;;;3.75;2.60;;;;;;;;;;5040436;28;20545;-65
2023/10/25 00:43:35;;;;;;;3.38;3.08;;;;;;;;;;5043220;28;20087;-65
2023/10/25 00:46:12;;;;;;;3.00;2.72;;;;;;;;;;5041878;28;20048;-65
2023/10/25 00:48:39;;;;;;;7.18;3.40;;;;;;;;;;5038019;28;20085;-65
2023/10/25 00:51:05;;;;;;;3.50;3.20;;;;;;;;;;5041152;28;20436;-65
2023/10/25 00:53:36;;;;;;;2.97;2.70;;;;;;;;;;5040771;28;20048;-65
2023/10/25 00:56:02;;;;;;;3.20;2.90;;;;;;;;;;5040539;28;20072;-64
2023/10/25 00:58:29;;;;;;;4.28;3.28;;;;;;;;;;5041720;28;20412;-65
2023/10/25 01:00:55;;;;;;;3.42;2.97;;;;;;;;;;5040115;28;20055;-65
2023/10/25 01:03:21;;;;;;;2.72;2.05;;;;;;;;;;5040772;28;20041;-65
2023/10/25 01:05:48;;;;;;;3.65;2.03;;;;;;;;;;5042850;28;20063;-65
2023/10/25 01:08:21;;;;;;;2.72;2.03;;;;;;;;;;5040537;28;20435;-65
2023/10/25 01:10:51;;;;;;;3.20;2.35;;;;;;;;;;5038834;28;20427;-65
2023/10/25 01:13:18;;;;;;;3.30;3.00;;;;;;;;;;5041183;28;20059;-64
2023/10/25 01:15:44;;;;;;;2.65;2.45;;;;;;;;;;5040107;28;20124;-65
2023/10/25 01:18:10;;;;;;;4.63;2.78;;;;;;;;;;5040983;28;20132;-65
2023/10/25 01:20:36;;;;;;;4.22;3.10;;;;;;;;;;5041244;28;20479;-65
2023/10/25 01:23:02;;;;;;;5.47;2.92;;;;;;;;;;5041745;28;20076;-65
2023/10/25 01:25:28;;;;;;;5.50;3.40;;;;;;;;;;5039945;28;20049;-65
2023/10/25 01:27:55;;;;;;;3.55;3.10;;;;;;;;;;5040961;28;20399;-65
2023/10/25 01:30:21;;;;;;;2.70;2.50;;;;;;;;;;5042394;28;20045;-65
2023/10/25 01:32:47;;;;;;;3.70;2.65;;;;;;;;;;5042673;28;20053;-65
2023/10/25 01:35:13;;;;;;;3.42;3.05;;;;;;;;;;5041404;28;20068;-65
2023/10/25 01:37:39;;;;;;;4.43;3.28;;;;;;;;;;5041556;28;20376;-64
2023/10/25 01:40:06;;;;;;;4.80;3.40;;;;;;;;;;5040129;28;20043;-65
2023/10/25 01:42:32;;;;;;;3.45;3.03;;;;;;;;;;5042407;28;20079;-64
2023/10/25 01:45:00;;;;;;;3.67;3.38;;;;;;;;;;5041406;28;20106;-65
2023/10/25 01:47:26;;;;;;;4.10;3.28;;;;;;;;;;5042250;28;20133;-65
2023/10/25 01:49:52;;;;;;;5.55;3.30;;;;;;;;;;5041052;28;20302;-65
2023/10/25 01:52:18;;;;;;;3.58;3.20;;;;;;;;;;5040138;28;20702;-65
2023/10/25 01:54:50;;;;;;;4.82;3.25;;;;;;;;;;5040463;28;20503;-65
2023/10/25 01:57:16;;;;;;;2.58;2.38;;;;;;;;;;5041992;28;20045;-65
2023/10/25 01:59:42;;;;;;;3.78;2.88;;;;;;;;;;5042034;28;20086;-65
2023/10/25 02:02:09;;;;;;;2.13;1.90;;;;;;;;;;5041459;28;20056;-65
2023/10/25 02:04:35;;;;;;;1.98;1.60;;;;;;;;;;5042179;28;20476;-65
2023/10/25 02:07:02;;;;;;;2.20;2.00;;;;;;;;;;5040840;28;20115;-64
2023/10/25 02:09:28;;;;;;;3.38;2.00;;;;;;;;;;5043210;28;20057;-65
2023/10/25 02:11:54;;;;;;;3.15;2.40;;;;;;;;;;5041188;28;20443;-65
2023/10/25 02:14:20;;;;;;;4.50;2.90;;;;;;;;;;5042146;28;20041;-65
2023/10/25 02:16:46;;;;;;;3.55;2.60;;;;;;;;;;5041313;28;20407;-65
2023/10/25 02:19:12;;;;;;;3.97;2.92;;;;;;;;;;5040127;28;20051;-65
2023/10/25 02:21:38;;;;;;;3.17;2.60;;;;;;;;;;5041573;28;20052;-64
2023/10/25 02:24:04;;;;;;;1.98;1.88;;;;;;;;;;5039995;28;20048;-65
2023/10/25 02:26:30;;;;;;;2.60;2.40;;;;;;;;;;5041927;28;20053;-65
2023/10/25 02:28:57;;;;;;;4.15;2.50;;;;;;;;;;5046028;28;20090;-65
2023/10/25 02:31:23;;;;;;;3.30;2.58;;;;;;;;;;5045071;28;20057;-65
2023/10/25 02:33:49;;;;;;;2.83;2.20;;;;;;;;;;5043886;28;20047;-65
2023/10/25 02:36:15;;;;;;;3.50;2.83;;;;;;;;;;5045582;28;20052;-65
2023/10/25 02:38:41;;;;;;;4.50;2.80;;;;;;;;;;5044986;28;20574;-65
2023/10/25 02:41:07;;;;;;;4.63;2.80;;;;;;;;;;5044279;28;20514;-65
2023/10/25 02:43:34;;;;;;;3.20;2.90;;;;;;;;;;5045029;28;20080;-63
2023/10/25 02:46:05;;;;;;;3.78;3.40;;;;;;;;;;5044729;28;20098;-64
2023/10/25 02:48:32;;;;;;;4.53;3.67;;;;;;;;;;5044113;28;20194;-64
2023/10/25 02:51:01;;;;;;;4.70;4.25;;;;;;;;;;5044296;28;20045;-64
2023/10/25 02:53:27;;;;;;;4.28;3.85;;;;;;;;;;5043465;28;20048;-64
2023/10/25 02:55:58;;;;;;;3.50;3.20;;;;;;;;;;5043557;28;20045;-64
2023/10/25 02:58:24;;;;;;;2.85;2.65;;;;;;;;;;5044028;28;20045;-64
2023/10/25 03:00:50;;;;;;;4.10;2.70;;;;;;;;;;5045594;28;20549;-64
2023/10/25 03:03:16;;;;;;;2.83;2.53;;;;;;;;;;5045571;28;20048;-64
2023/10/25 03:05:42;;;;;;;2.47;2.28;;;;;;;;;;5045655;28;20051;-64
2023/10/25 03:08:08;;;;;;;3.63;2.70;;;;;;;;;;5044436;28;20053;-63
2023/10/25 03:10:34;;;;;;;3.58;2.70;;;;;;;;;;5045313;28;20048;-64
2023/10/25 03:13:00;;;;;;;2.53;2.33;;;;;;;;;;5043596;28;20070;-64
2023/10/25 03:15:26;;;;;;;2.10;1.90;;;;;;;;;;5043447;28;20055;-64
2023/10/25 03:17:53;;;;;;;2.30;2.20;;;;;;;;;;5043656;28;20044;-64
2023/10/25 03:20:18;;;;;;;4.38;2.65;;;;;;;;;;5044229;28;20052;-64
2023/10/25 03:22:45;;;;;;;2.92;2.72;;;;;;;;;;5043656;28;20307;-64
2023/10/25 03:25:11;;;;;;;3.78;3.03;;;;;;;;;;5043651;28;20052;-64
2023/10/25 03:27:37;;;;;;;2.70;2.47;;;;;;;;;;5044210;28;20461;-64
2023/10/25 03:30:03;;;;;;;3.65;3.17;;;;;;;;;;5044233;28;20510;-64
2023/10/25 03:32:29;;;;;;;3.65;3.35;;;;;;;;;;5044183;28;20087;-64
2023/10/25 03:34:56;;;;;;;3.28;2.97;;;;;;;;;;5044824;28;20637;-64
2023/10/25 03:37:21;;;;;;;2.60;2.40;;;;;;;;;;5043753;28;20520;-64
2023/10/25 03:39:48;;;;;;;3.65;2.53;;;;;;;;;;5044967;28;20055;-64
2023/10/25 03:42:14;;;;;;;2.40;2.20;;;;;;;;;;5043694;28;20083;-64
2023/10/25 03:44:40;;;;;;;5.13;2.38;;;;;;;;;;5043477;28;20103;-64
2023/10/25 03:47:06;;;;;;;3.08;2.78;;;;;;;;;;5045077;28;20049;-64
2023/10/25 03:49:32;;;;;;;2.75;2.55;;;;;;;;;;5043711;28;20041;-64
2023/10/25 03:51:58;;;;;;;2.53;2.28;;;;;;;;;;5043873;28;20080;-64
2023/10/25 03:54:24;;;;;;;2.40;2.20;;;;;;;;;;5043910;28;20049;-64
2023/10/25 03:56:50;;;;;;;2.10;2.00;;;;;;;;;;5043142;28;20045;-64
2023/10/25 03:59:16;;;;;;;2.13;1.92;;;;;;;;;;5043294;28;20106;-64
2023/10/25 04:01:42;;;;;;;2.20;2.05;;;;;;;;;;5041975;28;20507;-63
2023/10/25 04:04:09;;;;;;;2.20;2.08;;;;;;;;;;5042908;28;20084;-64
2023/10/25 04:06:36;;;;;;;3.20;2.65;;;;;;;;;;5042636;28;20049;-64
2023/10/25 04:09:02;;;;;;;5.28;2.70;;;;;;;;;;5042791;28;20049;-64
2023/10/25 04:11:28;;;;;;;5.28;3.70;;;;;;;;;;5043135;28;20056;-64
2023/10/25 04:13:54;;;;;;;3.75;3.45;;;;;;;;;;5042827;28;20110;-64
2023/10/25 04:16:20;;;;;;;4.15;3.85;;;;;;;;;;5042919;28;20045;-64
2023/10/25 04:18:46;;;;;;;5.05;4.28;;;;;;;;;;5041098;28;20037;-64
2023/10/25 04:21:12;;;;;;;4.55;3.70;;;;;;;;;;5042253;28;20453;-64
2023/10/25 04:23:39;;;;;;;3.70;3.25;;;;;;;;;;5042405;28;20296;-64
2023/10/25 04:26:05;;;;;;;4.40;3.97;;;;;;;;;;5041066;28;20073;-64
2023/10/25 04:28:31;;;;;;;5.75;5.20;;;;;;;;;;5042795;28;20051;-64
2023/10/25 04:30:57;;;;;;;4.47;4.07;;;;;;;;;;5042643;28;20141;-64
2023/10/25 04:33:23;;;;;;;5.15;4.50;;;;;;;;;;5041799;28;20072;-63
2023/10/25 04:35:49;;;;;;;6.20;4.70;;;;;;;;;;5042445;28;20502;-64
2023/10/25 04:38:15;;;;;;;6.00;4.10;;;;;;;;;;5042423;28;20051;-64
2023/10/25 04:40:41;;;;;;;4.78;4.38;;;;;;;;;;5043119;28;20110;-64
2023/10/25 04:43:07;;;;;;;5.57;4.57;;;;;;;;;;5042690;28;20049;-64
2023/10/25 04:45:36;;;;;;;6.05;4.78;;;;;;;;;;5042413;28;20049;-64
2023/10/25 04:48:03;;;;;;;4.28;3.88;;;;;;;;;;5041572;28;20045;-64
2023/10/25 04:50:35;;;;;;;4.50;3.85;;;;;;;;;;5042306;28;20480;-64
2023/10/25 04:53:04;;;;;;;3.60;3.30;;;;;;;;;;5042043;28;20072;-63
2023/10/25 04:55:31;;;;;;;5.22;4.05;;;;;;;;;;5042276;28;20040;-64
2023/10/25 04:57:57;;;;;;;4.20;3.80;;;;;;;;;;5040638;28;20359;-64
2023/10/25 05:00:23;;;;;;;3.80;3.50;;;;;;;;;;5042316;28;20040;-64
2023/10/25 05:02:50;;;;;;;4.47;3.83;;;;;;;;;;5042871;28;20156;-64
2023/10/25 05:05:16;;;;;;;4.47;4.07;;;;;;;;;;5044116;28;20077;-64
2023/10/25 05:07:42;;;;;;;4.40;4.00;;;;;;;;;;5042488;28;20055;-64
2023/10/25 05:10:09;;;;;;;3.47;2.83;;;;;;;;;;5040254;28;20052;-64
2023/10/25 05:12:41;;;;;;;3.00;2.80;;;;;;;;;;5043547;28;20049;-64
2023/10/25 05:15:07;;;;;;;3.50;3.20;;;;;;;;;;5041488;28;20259;-64
2023/10/25 05:17:33;;;;;;;4.40;3.00;;;;;;;;;;5042149;28;20049;-64
2023/10/25 05:19:59;;;;;;;3.05;2.78;;;;;;;;;;5042264;28;20427;-62
2023/10/25 05:22:26;;;;;;;3.08;2.85;;;;;;;;;;5041298;28;20518;-64
2023/10/25 05:24:52;;;;;;;2.63;2.20;;;;;;;;;;5042033;28;20495;-64
2023/10/25 05:27:18;;;;;;;2.00;1.90;;;;;;;;;;5042025;28;20132;-64
2023/10/25 05:29:44;;;;;;;2.53;2.33;;;;;;;;;;5042726;28;20106;-64
2023/10/25 05:32:14;;;;;;;2.45;2.20;;;;;;;;;;5043352;28;20045;-64
2023/10/25 05:34:40;;;;;;;2.13;1.92;;;;;;;;;;5042395;28;20515;-64
2023/10/25 05:37:06;;;;;;;1.90;1.70;;;;;;;;;;5039020;28;20099;-64
2023/10/25 05:39:32;;;;;;;2.80;2.47;;;;;;;;;;5042229;28;20048;-64
2023/10/25 05:42:01;;;;;;;1.95;1.73;;;;;;;;;;5041853;28;20047;-63
2023/10/25 05:44:27;;;;;;;2.05;1.92;;;;;;;;;;5042617;28;20137;-64
2023/10/25 05:46:53;;;;;;;1.83;1.73;;;;;;;;;;5041763;28;20051;-64
2023/10/25 05:49:19;;;;;;;1.83;1.73;;;;;;;;;;5040858;28;20163;-63
2023/10/25 05:51:45;;;;;;;2.15;1.95;;;;;;;;;;5041387;28;20410;-63
2023/10/25 05:54:12;;;;;;;2.30;2.08;;;;;;;;;;5041082;28;20037;-63
2023/10/25 05:56:38;;;;;;;2.90;2.10;;;;;;;;;;5042054;28;20507;-64
2023/10/25 05:59:04;;;;;;;2.53;2.33;;;;;;;;;;5039869;28;20321;-63
2023/10/25 06:01:49;;;;;;;1.65;1.55;;;;;;;;;;5044890;28;20041;-63
2023/10/25 06:04:15;;;;;;;2.47;2.28;;;;;;;;;;5046637;28;20130;-63
2023/10/25 06:06:42;;;;;;;2.17;1.98;;;;;;;;;;5045760;28;20136;-63
2023/10/25 06:09:10;;;;;;;2.28;2.08;;;;;;;;;;5045828;28;20478;-64
2023/10/25 06:11:36;;;;;;;2.08;1.95;;;;;;;;;;5046132;28;20106;-63
2023/10/25 06:14:02;;;;;;;1.80;1.70;;;;;;;;;;5044421;28;20482;-64
2023/10/25 06:16:28;;;;;;;1.73;1.63;;;;;;;;;;5039543;28;20400;-64
2023/10/25 06:18:54;;;;;;;1.70;1.60;;;;;;;;;;5045657;28;20097;-63
2023/10/25 06:21:20;;;;;;;2.10;1.80;;;;;;;;;;5044771;28;20703;-64
2023/10/25 06:23:46;;;;;;;1.42;1.33;;;;;;;;;;5045320;28;20036;-64
2023/10/25 06:26:12;;;;;;;1.67;1.58;;;;;;;;;;5044571;28;20489;-64
2023/10/25 06:28:38;;;;;;;2.20;2.00;;;;;;;;;;5045521;28;20450;-64
2023/10/25 06:31:05;;;;;;;1.85;1.50;;;;;;;;;;5044688;28;20057;-64
2023/10/25 06:33:31;;;;;;;1.67;1.58;;;;;;;;;;5044535;28;20084;-64
2023/10/25 06:36:00;;;;;;;2.00;1.80;;;;;;;;;;5043656;28;20051;-64
2023/10/25 06:38:27;;;;;;;1.40;1.30;;;;;;;;;;5044503;28;20051;-65
2023/10/25 06:40:53;;;;;;;1.73;1.60;;;;;;;;;;5044381;28;20183;-65
2023/10/25 06:43:19;;;;;;;1.50;1.40;;;;;;;;;;5046508;28;20052;-65
2023/10/25 06:45:48;;;;;;;1.80;1.70;;;;;;;;;;5043308;28;20064;-65
2023/10/25 06:48:14;;;;;;;1.80;1.70;;;;;;;;;;5042822;28;20052;-65
2023/10/25 06:50:41;;;;;;;2.08;1.77;;;;;;;;;;5045142;28;20055;-64
2023/10/25 06:53:07;;;;;;;2.45;2.20;;;;;;;;;;5045741;28;20478;-64
2023/10/25 06:55:33;;;;;;;2.67;1.98;;;;;;;;;;5045625;28;20043;-65
2023/10/25 06:57:59;;;;;;;1.98;1.73;;;;;;;;;;5044648;28;20432;-65
2023/10/25 07:00:26;;;;;;;2.22;2.05;;;;;;;;;;5043804;28;20158;-65
2023/10/25 07:02:53;;;;;;;1.88;1.50;;;;;;;;;;5059102;28;20053;-64
2023/10/25 07:05:21;;;;;;;1.67;1.58;;;;;;;;;;5042417;28;20052;-63
2023/10/25 07:07:49;;;;;;;1.90;1.80;;;;;;;;;;5041410;28;20060;-63
2023/10/25 07:10:15;;;;;;;2.15;1.95;;;;;;;;;;5043591;28;20048;-63
2023/10/25 07:12:41;;;;;;;2.40;2.20;;;;;;;;;;5043232;28;20049;-63
2023/10/25 07:15:08;;;;;;;2.10;1.90;;;;;;;;;;5042701;28;20396;-63
2023/10/25 07:17:34;;;;;;;3.03;1.90;;;;;;;;;;5043532;28;20355;-63
2023/10/25 07:20:00;;;;;;;1.55;1.45;;;;;;;;;;5043277;28;20045;-64
2023/10/25 07:22:27;;;;;;;1.58;1.48;;;;;;;;;;5041204;28;20237;-64
2023/10/25 07:24:53;;;;;;;1.77;1.67;;;;;;;;;;5043356;28;20102;-64
2023/10/25 07:27:19;;;;;;;2.15;1.52;;;;;;;;;;5043748;28;20048;-64
2023/10/25 07:29:45;;;;;;;2.67;1.38;;;;;;;;;;5040270;28;20067;-64
2023/10/25 07:32:11;;;;;;;2.30;1.95;;;;;;;;;;5039082;28;20515;-65
2023/10/25 07:34:38;;;;;;;1.75;1.40;;;;;;;;;;5037438;28;20045;-64
2023/10/25 07:37:04;;;;;;;2.47;1.92;;;;;;;;;;5042187;28;20040;-64
2023/10/25 07:39:30;;;;;;;1.33;1.23;;;;;;;;;;5042832;28;20041;-63
2023/10/25 07:41:56;;;;;;;1.55;1.45;;;;;;;;;;5043190;28;20417;-64
2023/10/25 07:44:22;;;;;;;1.88;1.63;;;;;;;;;;5041728;28;20562;-64
2023/10/25 07:46:48;;;;;;;2.08;1.77;;;;;;;;;;5043081;28;20044;-64
2023/10/25 07:49:14;;;;;;;1.70;1.60;;;;;;;;;;5043576;28;20080;-63
2023/10/25 07:51:40;;;;;;;1.60;1.50;;;;;;;;;;5041737;28;20088;-63
2023/10/25 07:54:06;;;;;;;2.60;2.40;;;;;;;;;;5043889;28;20449;-64
2023/10/25 07:56:32;;;;;;;1.55;1.45;;;;;;;;;;5041860;28;20079;-64
2023/10/25 07:58:58;;;;;;;1.65;1.42;;;;;;;;;;5040966;28;20499;-63
2023/10/25 08:01:24;;;;;;;1.23;1.13;;;;;;;;;;5041374;28;20049;-67
2023/10/25 08:03:50;;;;;;;1.40;1.30;;;;;;;;;;5040657;28;20033;-66
2023/10/25 08:06:17;;;;;;;1.30;1.20;;;;;;;;;;5041948;28;20196;-63
2023/10/25 08:08:43;;;;;;;1.85;1.75;;;;;;;;;;5043109;28;20483;-63
2023/10/25 08:11:09;;;;;;;3.30;2.05;;;;;;;;;;5042533;28;21050;-64
2023/10/25 08:13:38;;;;;;;2.03;1.92;;;;;;;;;;5037384;28;20044;-63
2023/10/25 08:16:04;;;;;;;1.40;1.30;;;;;;;;;;5038152;28;20072;-63
2023/10/25 08:18:32;;;;;;;2.25;1.85;;;;;;;;;;5042686;28;20363;-63
2023/10/25 08:20:58;;;;;;;1.95;1.85;;;;;;;;;;5042923;28;20049;-64
2023/10/25 08:23:25;;;;;;;2.20;2.00;;;;;;;;;;5042444;28;20053;-64
2023/10/25 08:25:51;;;;;;;2.80;2.53;;;;;;;;;;5028836;28;20049;-64
2023/10/25 08:28:20;;;;;;;3.03;1.70;;;;;;;;;;5041471;28;20044;-63
2023/10/25 08:30:46;;;;;;;1.70;1.60;;;;;;;;;;5041743;28;20391;-63
2023/10/25 08:33:12;;;;;;;1.80;1.70;;;;;;;;;;5039055;28;20045;-63
2023/10/25 08:35:38;;;;;;;1.73;1.58;;;;;;;;;;5042201;28;20379;-63
2023/10/25 08:38:05;;;;;;;1.75;1.65;;;;;;;;;;5041562;28;20080;-63
2023/10/25 08:40:34;;;;;;;2.15;1.95;;;;;;;;;;5040266;28;20037;-64
2023/10/25 08:43:00;;;;;;;1.75;1.65;;;;;;;;;;5043994;28;20041;-63
2023/10/25 08:45:27;;;;;;;2.00;1.80;;;;;;;;;;5042992;28;20048;-63
2023/10/25 08:47:53;;;;;;;2.25;2.05;;;;;;;;;;5042168;28;20088;-64
2023/10/25 08:50:22;;;;;;;1.80;1.70;;;;;;;;;;5042589;28;20086;-63
2023/10/25 08:52:49;;;;;;;1.85;1.73;;;;;;;;;;5042628;28;20095;-63
2023/10/25 08:55:17;;;;;;;2.50;1.73;;;;;;;;;;5041249;28;20057;-63
2023/10/25 08:57:43;;;;;;;1.98;1.88;;;;;;;;;;5042792;28;20238;-63
2023/10/25 09:00:10;;;;;;;2.92;2.30;;;;;;;;;;5041983;28;20399;-63
2023/10/25 09:02:40;;;;;;;2.85;2.15;;;;;;;;;;5042654;28;20549;-64
2023/10/25 09:05:07;;;;;;;3.17;2.00;;;;;;;;;;5042531;28;20111;-64
2023/10/25 09:07:35;;;;;;;1.80;1.67;;;;;;;;;;5043219;28;20044;-64
2023/10/25 09:10:03;;;;;;;1.75;1.60;;;;;;;;;;5040021;28;20057;-64
2023/10/25 09:12:29;;;;;;;1.70;1.60;;;;;;;;;;5056001;28;20071;-64
2023/10/25 09:14:55;;;;;;;1.40;1.30;;;;;;;;;;5039860;28;20048;-64
2023/10/25 09:17:21;;;;;;;1.98;1.75;;;;;;;;;;5040211;28;20467;-64
2023/10/25 09:19:48;;;;;;;2.22;1.75;;;;;;;;;;5039988;28;20055;-64
2023/10/25 09:22:21;;;;;;;2.13;1.98;;;;;;;;;;5043146;28;20106;-63
2023/10/25 09:24:51;;;;;;;2.25;2.05;;;;;;;;;;5041204;28;20549;-66
2023/10/25 09:27:18;;;;;;;1.70;1.60;;;;;;;;;;5043895;28;20421;-66
2023/10/25 09:29:44;;;;;;;2.03;1.70;;;;;;;;;;5043638;28;20507;-64
2023/10/25 09:32:10;;;;;;;1.73;1.63;;;;;;;;;;5041646;28;20081;-64
2023/10/25 09:34:37;;;;;;;3.13;2.05;;;;;;;;;;5042200;28;20076;-63
2023/10/25 09:37:06;;;;;;;2.08;1.90;;;;;;;;;;5038256;28;20744;-63
2023/10/25 09:39:35;;;;;;;2.65;2.00;;;;;;;;;;5041738;28;20049;-63
2023/10/25 09:42:02;;;;;;;2.03;1.83;;;;;;;;;;5039107;28;20077;-63
2023/10/25 09:44:31;;;;;;;1.65;1.55;;;;;;;;;;5042532;28;20049;-63
2023/10/25 09:46:59;;;;;;;2.20;2.00;;;;;;;;;;5042889;28;20442;-63
2023/10/25 09:49:29;;;;;;;3.95;1.77;;;;;;;;;;5040253;28;20080;-63
2023/10/25 09:52:07;;;;;;;1.95;1.70;;;;;;;;;;5040195;28;20045;-65
2023/10/25 09:54:34;;;;;;;2.67;2.20;;;;;;;;;;5036921;28;20056;-66
2023/10/25 09:57:07;;;;;;;2.08;1.98;;;;;;;;;;5041122;28;20375;-65
2023/10/25 09:59:34;;;;;;;2.63;2.22;;;;;;;;;;5038935;28;20053;-65
2023/10/25 10:02:01;;;;;;;1.42;1.33;;;;;;;;;;5042167;28;20055;-65
2023/10/25 10:04:54;;;;;;;2.30;2.10;;;;;;;;;;5037248;28;20039;-65
2023/10/25 10:07:32;;;;;;;2.00;1.90;;;;;;;;;;5033554;28;20412;-65
2023/10/25 10:10:08;;;;;;;2.05;1.65;;;;;;;;;;5037144;28;20267;-66
2023/10/25 10:12:35;;;;;;;1.92;1.83;;;;;;;;;;5039848;28;20044;-65
2023/10/25 10:15:02;;;;;;;2.65;2.30;;;;;;;;;;5040514;28;20090;-65
2023/10/25 10:17:34;;;;;;;2.95;2.75;;;;;;;;;;5042462;28;20041;-65
2023/10/25 10:20:04;;;;;;;2.25;2.05;;;;;;;;;;5037863;28;20054;-64
2023/10/25 10:22:30;;;;;;;2.47;2.28;;;;;;;;;;5041590;28;20045;-64
2023/10/25 10:24:57;;;;;;;2.83;2.47;;;;;;;;;;5040002;28;20040;-64
2023/10/25 10:27:27;;;;;;;2.33;2.10;;;;;;;;;;5041188;28;20061;-63
2023/10/25 10:29:53;;;;;;;2.25;2.05;;;;;;;;;;5041294;28;20041;-64
2023/10/25 10:32:19;;;;;;;2.80;2.60;;;;;;;;;;5040711;28;20407;-64
2023/10/25 10:34:45;;;;;;;5.05;3.65;;;;;;;;;;5041742;28;20557;-64
2023/10/25 10:37:16;;;;;;;4.18;2.35;;;;;;;;;;5041571;28;20167;-64
2023/10/25 10:39:57;;;;;;;2.78;2.40;;;;;;;;;;5041981;28;20056;-64
2023/10/25 10:42:32;;;;;;;2.25;2.15;;;;;;;;;;5042017;28;20053;-64
2023/10/25 10:44:58;;;;;;;4.43;2.78;;;;;;;;;;5040851;28;20061;-63
2023/10/25 10:47:29;;;;;;;2.83;2.63;;;;;;;;;;5040489;28;20056;-64
2023/10/25 10:49:59;;;;;;;2.58;2.38;;;;;;;;;;5044312;28;20504;-64
2023/10/25 10:52:25;;;;;;;2.47;2.28;;;;;;;;;;5043814;28;20518;-64
2023/10/25 10:54:51;;;;;;;2.15;1.95;;;;;;;;;;5043268;28;20075;-64
2023/10/25 10:57:17;;;;;;;2.40;2.20;;;;;;;;;;5044705;28;20442;-64
2023/10/25 10:59:46;;;;;;;3.05;2.75;;;;;;;;;;5045560;28;20073;-63
2023/10/25 11:02:13;;;;;;;2.88;2.55;;;;;;;;;;5045878;28;20160;-63
2023/10/25 11:04:43;;;;;;;2.97;2.45;;;;;;;;;;5046215;28;20110;-64
2023/10/25 11:07:09;;;;;;;2.10;1.90;;;;;;;;;;5036966;28;20061;-64
2023/10/25 11:09:35;;;;;;;3.58;2.75;;;;;;;;;;5046885;28;20399;-63
2023/10/25 11:12:05;;;;;;;3.83;2.40;;;;;;;;;;5045282;28;20053;-63
2023/10/25 11:14:39;;;;;;;3.17;2.63;;;;;;;;;;5046105;28;20373;-63
2023/10/25 11:17:05;;;;;;;2.40;2.20;;;;;;;;;;5046807;28;20146;-64
2023/10/25 11:19:34;;;;;;;6.07;3.38;;;;;;;;;;5045725;28;20037;-64
2023/10/25 11:22:01;;;;;;;4.93;3.45;;;;;;;;;;5045565;28;20098;-64
2023/10/25 11:24:27;;;;;;;3.42;2.75;;;;;;;;;;5045675;28;20036;-64
2023/10/25 11:26:53;;;;;;;2.72;2.47;;;;;;;;;;5045264;28;20044;-63
2023/10/25 11:29:20;;;;;;;2.22;2.03;;;;;;;;;;5044593;28;20033;-63
2023/10/25 11:31:49;;;;;;;2.83;2.63;;;;;;;;;;5045497;28;20059;-64
2023/10/25 11:34:24;;;;;;;2.58;2.35;;;;;;;;;;5045509;28;20056;-64
2023/10/25 11:36:50;;;;;;;2.42;2.20;;;;;;;;;;5044443;28;20123;-64
2023/10/25 11:39:16;;;;;;;4.53;2.90;;;;;;;;;;5045148;28;20040;-64
2023/10/25 11:41:42;;;;;;;2.40;2.20;;;;;;;;;;5046152;28;20098;-64
2023/10/25 11:44:08;;;;;;;1.70;1.60;;;;;;;;;;5045056;28;20865;-64
2023/10/25 11:46:35;;;;;;;1.80;1.70;;;;;;;;;;5044500;28;20060;-64
2023/10/25 11:49:01;;;;;;;2.10;2.00;;;;;;;;;;5045533;28;20106;-64
2023/10/25 11:51:28;;;;;;;2.30;2.10;;;;;;;;;;5044554;28;20048;-64
2023/10/25 11:53:54;;;;;;;3.40;2.20;;;;;;;;;;5044586;28;20064;-64
2023/10/25 11:56:21;;;;;;;2.83;2.63;;;;;;;;;;5045350;28;20041;-64
2023/10/25 11:58:48;;;;;;;2.75;2.50;;;;;;;;;;5043928;28;20518;-64
2023/10/25 12:01:14;;;;;;;2.55;2.30;;;;;;;;;;5045034;28;20045;-64
2023/10/25 12:03:41;;;;;;;4.47;3.40;;;;;;;;;;5043958;28;20041;-64
2023/10/25 12:06:07;;;;;;;3.63;3.00;;;;;;;;;;5045523;28;20072;-64
2023/10/25 12:08:33;;;;;;;3.13;2.70;;;;;;;;;;5044280;28;20087;-63
2023/10/25 12:10:59;;;;;;;3.20;2.83;;;;;;;;;;5044808;28;20123;-64
2023/10/25 12:13:26;;;;;;;3.20;2.63;;;;;;;;;;5044192;28;20069;-64
2023/10/25 12:15:52;;;;;;;2.90;2.70;;;;;;;;;;5044077;28;20100;-63
2023/10/25 12:18:18;;;;;;;2.78;2.58;;;;;;;;;;5043444;28;20047;-64
2023/10/25 12:20:44;;;;;;;4.35;2.63;;;;;;;;;;5044580;28;20053;-64
2023/10/25 12:23:10;;;;;;;3.42;3.13;;;;;;;;;;5044301;28;20080;-64
2023/10/25 12:25:37;;;;;;;4.72;3.08;;;;;;;;;;5043592;28;20083;-64
2023/10/25 12:28:04;;;;;;;4.10;3.70;;;;;;;;;;5044335;28;20116;-64
2023/10/25 12:30:30;;;;;;;3.20;2.90;;;;;;;;;;5035870;28;20041;-64
2023/10/25 12:32:56;;;;;;;2.53;2.33;;;;;;;;;;5043223;28;20380;-63
2023/10/25 12:35:22;;;;;;;2.67;2.47;;;;;;;;;;5044086;28;20510;-64
2023/10/25 12:37:48;;;;;;;2.10;1.90;;;;;;;;;;5043945;28;20045;-64
2023/10/25 12:40:16;;;;;;;2.03;1.85;;;;;;;;;;5045052;28;20184;-64
2023/10/25 12:42:42;;;;;;;2.80;2.15;;;;;;;;;;5035729;28;20045;-64
2023/10/25 12:45:08;;;;;;;3.20;2.42;;;;;;;;;;5043107;28;20063;-64
2023/10/25 12:47:34;;;;;;;4.55;2.88;;;;;;;;;;5043809;28;20438;-63
2023/10/25 12:50:00;;;;;;;2.50;2.30;;;;;;;;;;5043623;28;20041;-63
2023/10/25 12:52:26;;;;;;;2.70;2.50;;;;;;;;;;5042807;28;20048;-64
2023/10/25 12:54:53;;;;;;;2.55;2.35;;;;;;;;;;5044656;28;20098;-64
2023/10/25 12:57:19;;;;;;;1.92;1.63;;;;;;;;;;5043581;28;20412;-64
2023/10/25 12:59:45;;;;;;;2.35;2.10;;;;;;;;;;5043008;28;20430;-64
2023/10/25 13:02:11;;;;;;;1.63;1.52;;;;;;;;;;5043686;28;20491;-64
2023/10/25 13:04:37;;;;;;;1.80;1.63;;;;;;;;;;5043692;28;20080;-64
2023/10/25 13:07:03;;;;;;;1.50;1.40;;;;;;;;;;5042387;28;20087;-64
2023/10/25 13:09:29;;;;;;;2.50;2.30;;;;;;;;;;5040400;28;20090;-64
2023/10/25 13:11:55;;;;;;;2.90;2.60;;;;;;;;;;5040676;28;20052;-64
2023/10/25 13:14:21;;;;;;;4.32;2.90;;;;;;;;;;5038093;28;20132;-65
2023/10/25 13:16:47;;;;;;;2.60;2.40;;;;;;;;;;5033714;28;20514;-65
2023/10/25 13:19:13;;;;;;;2.20;2.00;;;;;;;;;;5031513;28;20080;-65
2023/10/25 13:21:41;;;;;;;1.60;1.50;;;;;;;;;;5039125;28;20036;-65
2023/10/25 13:24:09;;;;;;;3.03;1.58;;;;;;;;;;5037450;28;20661;-63
2023/10/25 13:26:35;;;;;;;1.50;1.40;;;;;;;;;;5041614;28;20048;-65
2023/10/25 13:29:01;;;;;;;3.65;1.90;;;;;;;;;;5035034;28;20550;-64
2023/10/25 13:31:27;;;;;;;1.75;1.65;;;;;;;;;;5037534;28;20041;-64
2023/10/25 13:33:53;;;;;;;3.03;1.98;;;;;;;;;;5039562;28;20574;-64
2023/10/25 13:36:19;;;;;;;2.47;2.28;;;;;;;;;;5039249;28;20486;-65
2023/10/25 13:38:45;;;;;;;2.45;1.90;;;;;;;;;;5032706;28;20069;-64
2023/10/25 13:41:11;;;;;;;1.65;1.55;;;;;;;;;;5038698;28;20133;-64
2023/10/25 13:43:39;;;;;;;1.38;1.27;;;;;;;;;;5039693;28;20119;-64
2023/10/25 13:46:06;;;;;;;0.90;0.90;;;;;;;;;;5035718;28;20067;-64
2023/10/25 13:48:32;;;;;;;1.08;0.98;;;;;;;;;;5036462;28;20120;-68
2023/10/25 13:50:58;;;;;;;0.77;0.77;;;;;;;;;;5042145;28;20055;-67
2023/10/25 13:53:24;;;;;;;0.80;0.80;;;;;;;;;;5041926;28;20063;-63
2023/10/25 13:55:51;;;;;;;1.35;1.25;;;;;;;;;;5043204;28;20059;-64
2023/10/25 13:58:18;;;;;;;0.85;0.77;;;;;;;;;;5037006;28;20076;-64
2023/10/25 14:00:45;;;;;;;1.73;1.63;;;;;;;;;;5038130;28;20055;-64
2023/10/25 14:03:11;;;;;;;2.35;1.63;;;;;;;;;;5036902;28;20071;-64
2023/10/25 14:05:41;;;;;;;2.67;2.30;;;;;;;;;;5037061;28;20106;-63
2023/10/25 14:08:08;;;;;;;1.70;1.60;;;;;;;;;;5034243;28;20057;-63
2023/10/25 14:10:35;;;;;;;2.08;1.90;;;;;;;;;;5038618;28;20197;-63
2023/10/25 14:13:02;;;;;;;1.95;1.75;;;;;;;;;;5038488;28;20131;-64
2023/10/25 14:15:28;;;;;;;1.65;1.55;;;;;;;;;;5035648;28;20048;-63
2023/10/25 14:17:54;;;;;;;1.40;1.30;;;;;;;;;;5039077;28;20056;-63
2023/10/25 14:20:21;;;;;;;1.70;1.17;;;;;;;;;;5042810;28;20060;-63
2023/10/25 14:22:47;;;;;;;1.98;1.20;;;;;;;;;;5044846;28;20450;-63
2023/10/25 14:25:13;;;;;;;0.80;0.80;;;;;;;;;;5045833;28;20114;-63
2023/10/25 14:27:39;;;;;;;1.27;1.00;;;;;;;;;;5045548;28;20068;-63
2023/10/25 14:30:06;;;;;;;1.20;1.08;;;;;;;;;;5040793;28;20175;-62
2023/10/25 14:32:32;;;;;;;0.88;0.77;;;;;;;;;;5042017;28;20056;-63
2023/10/25 14:34:58;;;;;;;0.98;0.80;;;;;;;;;;5039688;28;20051;-62
2023/10/25 14:37:25;;;;;;;0.73;0.73;;;;;;;;;;5045475;28;20041;-62
2023/10/25 14:39:51;;;;;;;0.75;0.75;;;;;;;;;;5043918;28;20586;-63
2023/10/25 14:42:17;;;;;;;0.70;0.60;;;;;;;;;;5044979;28;20403;-62